createdAt,value
2024-03-20T00:02:27.093Z,1.15
2024-03-20T00:04:55.374Z,1.12
2024-03-20T00:07:23.494Z,1.10
2024-03-20T00:09:51.525Z,1.08
2024-03-20T00:12:20.836Z,1.06
2024-03-20T00:14:49.819Z,1.10
2024-03-20T00:17:17.907Z,1.12
2024-03-20T00:19:46.383Z,1.12
2024-03-20T00:22:14.345Z,1.16
2024-03-20T00:24:42.444Z,1.21
2024-03-20T00:27:10.455Z,1.23
2024-03-20T00:29:38.407Z,1.27
2024-03-20T00:32:07.139Z,1.28
2024-03-20T00:34:35.095Z,1.27
2024-03-20T00:37:03.193Z,1.22
2024-03-20T00:39:31.331Z,1.17
2024-03-20T00:41:59.321Z,1.16
2024-03-20T00:44:27.322Z,1.11
2024-03-20T00:46:55.337Z,1.08
2024-03-20T00:49:23.371Z,0.98
2024-03-20T00:51:51.367Z,0.83
2024-03-20T00:54:19.325Z,0.77
2024-03-20T00:56:47.299Z,0.70
2024-03-20T00:59:18.049Z,0.68
2024-03-20T01:01:46.057Z,0.70
2024-03-20T01:04:15.681Z,0.72
2024-03-20T01:06:44.965Z,0.68
2024-03-20T01:09:12.946Z,0.59
2024-03-20T01:11:40.904Z,0.50
2024-03-20T01:14:08.855Z,0.45
2024-03-20T01:16:38.259Z,0.42
2024-03-20T01:19:06.365Z,0.40
2024-03-20T01:21:34.361Z,0.41
2024-03-20T01:24:02.353Z,0.45
2024-03-20T01:26:30.947Z,0.53
2024-03-20T01:28:58.921Z,0.56
2024-03-20T01:31:27.058Z,0.58
2024-03-20T01:33:55.122Z,0.60
2024-03-20T01:36:23.287Z,0.60
2024-03-20T01:38:51.328Z,0.65
2024-03-20T01:41:19.416Z,0.70
2024-03-20T01:43:55.362Z,0.73
2024-03-20T01:46:34.711Z,0.76
2024-03-20T01:49:05.378Z,0.80
2024-03-20T01:51:34.016Z,0.84
2024-03-20T01:54:03.365Z,0.85
2024-03-20T01:56:33.407Z,0.91
2024-03-20T01:59:01.452Z,0.93
2024-03-20T02:01:29.432Z,0.96
2024-03-20T02:03:59.041Z,0.94
2024-03-20T02:06:29.286Z,0.93
2024-03-20T02:08:58.608Z,0.93
2024-03-20T02:11:29.698Z,0.90
2024-03-20T02:13:58.895Z,0.85
2024-03-20T02:16:28.561Z,0.81
2024-03-20T02:18:57.053Z,0.75
2024-03-20T02:21:25.737Z,0.74
2024-03-20T02:23:53.757Z,0.70
2024-03-20T02:26:22.141Z,0.65
2024-03-20T02:28:50.085Z,0.64
2024-03-20T02:31:18.088Z,0.58
2024-03-20T02:33:46.296Z,0.59
2024-03-20T02:36:14.319Z,0.58
2024-03-20T02:38:43.095Z,0.57
2024-03-20T02:41:11.903Z,0.56
2024-03-20T02:43:39.954Z,0.55
2024-03-20T02:46:07.951Z,0.56
2024-03-20T02:48:36.000Z,0.57
2024-03-20T02:51:04.942Z,0.56
2024-03-20T02:53:32.911Z,0.59
2024-03-20T02:56:00.967Z,0.62
2024-03-20T02:58:28.940Z,0.65
2024-03-20T03:00:56.947Z,0.69
2024-03-20T03:03:24.933Z,0.70
2024-03-20T03:05:52.977Z,0.69
2024-03-20T03:08:20.989Z,0.68
2024-03-20T03:10:48.979Z,0.69
2024-03-20T03:13:17.364Z,0.70
2024-03-20T03:15:45.378Z,0.67
2024-03-20T03:18:13.381Z,0.66
2024-03-20T03:20:44.410Z,0.67
2024-03-20T03:23:12.491Z,0.64
2024-03-20T03:25:40.553Z,0.66
2024-03-20T03:28:08.534Z,0.67
2024-03-20T03:30:36.624Z,0.64
2024-03-20T03:33:04.655Z,0.61
2024-03-20T03:35:32.665Z,0.59
2024-03-20T03:38:00.658Z,0.56
2024-03-20T03:40:28.651Z,0.53
2024-03-20T03:42:56.670Z,0.49
2024-03-20T03:45:24.699Z,0.47
2024-03-20T03:47:52.825Z,0.45
2024-03-20T03:50:20.883Z,0.43
2024-03-20T03:52:50.592Z,0.44
2024-03-20T03:55:18.586Z,0.43
2024-03-20T03:57:46.585Z,0.46
2024-03-20T04:00:15.037Z,0.48
2024-03-20T04:02:43.039Z,0.46
2024-03-20T04:05:11.051Z,0.49
2024-03-20T04:07:39.068Z,0.46
2024-03-20T04:10:07.620Z,0.47
2024-03-20T04:12:35.610Z,0.45
2024-03-20T04:15:04.137Z,0.46
2024-03-20T04:17:32.132Z,0.44
2024-03-20T04:20:00.182Z,0.42
2024-03-20T04:22:28.246Z,0.40
2024-03-20T04:24:56.255Z,0.38
2024-03-20T04:27:24.270Z,0.34
2024-03-20T04:29:53.359Z,0.32
2024-03-20T04:32:21.354Z,0.30
2024-03-20T04:34:49.310Z,0.35
2024-03-20T04:37:17.302Z,0.35
2024-03-20T04:39:45.356Z,0.35
2024-03-20T04:42:13.826Z,0.38
2024-03-20T04:44:41.868Z,0.40
2024-03-20T04:47:09.858Z,0.38
2024-03-20T04:49:37.864Z,0.37
2024-03-20T04:52:06.407Z,0.35
2024-03-20T04:54:34.462Z,0.32
2024-03-20T04:57:02.459Z,0.33
2024-03-20T04:59:30.448Z,0.32
2024-03-20T05:01:58.417Z,0.30
2024-03-20T05:04:26.389Z,0.24
2024-03-20T05:06:54.635Z,0.19
2024-03-20T05:09:23.573Z,0.19
2024-03-20T05:11:52.006Z,0.11
2024-03-20T05:14:19.965Z,0.08
2024-03-20T05:16:48.001Z,-0.00
2024-03-20T05:19:16.182Z,-0.05
2024-03-20T05:21:44.379Z,-0.07
2024-03-20T05:24:12.358Z,-0.15
2024-03-20T05:26:40.396Z,-0.21
2024-03-20T05:29:08.724Z,-0.23
2024-03-20T05:31:36.927Z,-0.23
2024-03-20T05:34:05.034Z,-0.28
2024-03-20T05:36:33.018Z,-0.26
2024-03-20T05:39:01.032Z,-0.28
2024-03-20T05:41:29.478Z,-0.31
2024-03-20T05:43:58.202Z,-0.32
2024-03-20T05:46:26.424Z,-0.27
2024-03-20T05:48:54.393Z,-0.25
2024-03-20T05:51:22.360Z,-0.22
2024-03-20T05:53:50.339Z,-0.23
2024-03-20T05:56:18.361Z,-0.20
2024-03-20T05:58:49.817Z,-0.19
2024-03-20T06:01:19.202Z,-0.20
2024-03-20T06:03:47.194Z,-0.21
2024-03-20T06:06:15.197Z,-0.20
2024-03-20T06:11:28.965Z,-0.20
2024-03-20T06:13:58.262Z,-0.19
2024-03-20T06:16:26.283Z,-0.19
2024-03-20T06:18:54.302Z,-0.20
2024-03-20T06:21:22.511Z,-0.19
2024-03-20T06:23:50.596Z,-0.18
2024-03-20T06:26:18.589Z,-0.19
2024-03-20T06:28:46.965Z,-0.22
2024-03-20T06:31:15.277Z,-0.22
2024-03-20T06:33:44.988Z,-0.24
2024-03-20T06:36:13.043Z,-0.23
2024-03-20T06:38:42.178Z,-0.24
2024-03-20T06:41:10.466Z,-0.23
2024-03-20T06:43:39.333Z,-0.22
2024-03-20T06:46:07.359Z,-0.19
2024-03-20T06:48:35.599Z,-0.13
2024-03-20T06:51:06.985Z,-0.10
2024-03-20T06:53:36.390Z,-0.07
2024-03-20T06:56:06.832Z,-0.00
2024-03-20T06:58:34.806Z,0.02
2024-03-20T07:01:04.161Z,0.06
2024-03-20T07:03:32.173Z,0.11
2024-03-20T07:06:00.700Z,0.19
2024-03-20T07:08:31.236Z,0.24
2024-03-20T07:10:59.454Z,0.27
2024-03-20T07:13:27.483Z,0.34
2024-03-20T07:15:55.438Z,0.38
2024-03-20T07:18:23.456Z,0.40
2024-03-20T07:20:51.411Z,0.40
2024-03-20T07:23:19.504Z,0.41
2024-03-20T07:25:47.888Z,0.44
2024-03-20T07:28:15.966Z,0.42
2024-03-20T07:30:43.940Z,0.41
2024-03-20T07:33:12.504Z,0.41
2024-03-20T07:35:48.465Z,0.41
2024-03-20T07:38:17.165Z,0.42
2024-03-20T07:40:46.476Z,0.45
2024-03-20T07:43:15.664Z,0.50
2024-03-20T07:45:43.678Z,0.52
2024-03-20T07:48:13.250Z,0.59
2024-03-20T07:50:41.337Z,0.63
2024-03-20T07:53:09.783Z,0.69
2024-03-20T07:55:37.772Z,0.76
2024-03-20T07:58:07.426Z,0.80
2024-03-20T08:00:36.481Z,0.89
2024-03-20T08:03:04.565Z,0.89
2024-03-20T08:05:32.730Z,0.98
2024-03-20T08:08:00.690Z,1.08
2024-03-20T08:10:28.788Z,1.23
2024-03-20T08:12:56.963Z,1.38
2024-03-20T08:15:24.986Z,1.53
2024-03-20T08:17:53.057Z,1.73
2024-03-20T08:20:21.145Z,1.84
2024-03-20T08:22:49.118Z,1.94
2024-03-20T08:25:17.562Z,1.96
2024-03-20T08:27:45.690Z,2.08
2024-03-20T08:30:14.619Z,2.21
2024-03-20T08:32:42.904Z,2.40
2024-03-20T08:35:14.029Z,2.60
2024-03-20T08:37:42.085Z,2.88
2024-03-20T08:40:11.096Z,3.23
2024-03-20T08:42:39.693Z,3.59
2024-03-20T08:45:09.413Z,3.92
2024-03-20T08:47:38.403Z,4.29
2024-03-20T08:50:09.269Z,4.65
2024-03-20T08:52:37.342Z,4.90
2024-03-20T08:55:07.301Z,5.03
2024-03-20T08:57:37.654Z,5.05
2024-03-20T09:00:12.135Z,5.14
2024-03-20T09:02:40.268Z,5.26
2024-03-20T09:05:09.839Z,5.58
2024-03-20T09:07:37.947Z,5.97
2024-03-20T09:10:06.357Z,6.23
2024-03-20T09:12:34.334Z,6.48
2024-03-20T09:15:02.901Z,6.98
2024-03-20T09:17:30.930Z,7.36
2024-03-20T09:19:59.313Z,7.54
2024-03-20T09:22:27.479Z,7.79
2024-03-20T09:24:55.632Z,7.95
2024-03-20T09:27:23.845Z,8.29
2024-03-20T09:29:52.103Z,8.22
2024-03-20T09:32:20.153Z,8.05
2024-03-20T09:34:48.218Z,7.88
2024-03-20T09:37:19.968Z,7.60
2024-03-20T09:39:48.211Z,7.45
2024-03-20T09:42:16.186Z,7.47
2024-03-20T09:44:44.469Z,7.51
2024-03-20T09:47:12.972Z,7.78
2024-03-20T09:49:41.496Z,8.40
2024-03-20T09:52:10.806Z,9.18
2024-03-20T09:54:38.983Z,9.71
2024-03-20T09:57:07.380Z,10.07
2024-03-20T09:59:35.461Z,9.83
2024-03-20T10:02:03.627Z,9.69
2024-03-20T10:04:42.466Z,9.45
2024-03-20T10:07:17.478Z,9.02
2024-03-20T10:09:46.830Z,8.60
2024-03-20T10:12:18.481Z,8.27
2024-03-20T10:14:48.517Z,7.92
2024-03-20T10:17:18.886Z,7.49
2024-03-20T10:19:46.955Z,7.27
2024-03-20T10:22:15.213Z,7.01
2024-03-20T10:24:43.557Z,6.83
2024-03-20T10:27:13.798Z,6.76
2024-03-20T10:29:46.118Z,6.62
2024-03-20T10:32:19.078Z,6.56
2024-03-20T10:34:49.066Z,6.56
2024-03-20T10:37:18.613Z,6.55
2024-03-20T10:39:49.790Z,6.61
2024-03-20T10:42:19.495Z,6.85
2024-03-20T10:44:48.014Z,7.04
2024-03-20T10:47:16.516Z,7.17
2024-03-20T10:49:45.766Z,7.09
2024-03-20T10:52:15.418Z,6.93
2024-03-20T10:54:43.515Z,6.80
2024-03-20T10:57:12.037Z,6.79
2024-03-20T10:59:40.120Z,6.90
2024-03-20T11:02:14.913Z,7.14
2024-03-20T11:04:44.498Z,7.73
2024-03-20T11:07:30.488Z,8.75
2024-03-20T11:09:59.600Z,9.63
2024-03-20T11:12:35.116Z,9.92
2024-03-20T11:15:08.497Z,9.83
2024-03-20T11:17:37.805Z,9.64
2024-03-20T11:20:13.664Z,10.15
2024-03-20T11:22:41.627Z,10.77
2024-03-20T11:25:12.227Z,10.72
2024-03-20T11:27:40.594Z,10.55
2024-03-20T11:30:10.870Z,10.30
2024-03-20T11:32:38.823Z,10.22
2024-03-20T11:35:09.345Z,10.63
2024-03-20T11:37:37.719Z,10.53
2024-03-20T11:40:06.895Z,10.20
2024-03-20T11:42:34.864Z,9.77
2024-03-20T11:45:05.113Z,9.46
2024-03-20T11:47:33.204Z,9.11
2024-03-20T11:50:01.336Z,8.78
2024-03-20T11:52:30.043Z,8.77
2024-03-20T11:55:00.236Z,9.00
2024-03-20T11:57:28.669Z,9.30
2024-03-20T11:59:57.335Z,9.31
2024-03-20T12:02:26.245Z,9.19
2024-03-20T12:04:54.588Z,8.87
2024-03-20T12:07:26.983Z,8.64
2024-03-20T12:09:56.103Z,8.50
2024-03-20T12:12:28.427Z,8.87
2024-03-20T12:14:57.637Z,9.21
2024-03-20T12:17:27.784Z,9.10
2024-03-20T12:19:57.044Z,8.89
2024-03-20T12:22:25.854Z,8.78
2024-03-20T12:25:01.900Z,8.83
2024-03-20T12:27:33.124Z,9.29
2024-03-20T12:30:01.203Z,9.68
2024-03-20T12:32:29.814Z,9.88
2024-03-20T12:34:57.922Z,9.79
2024-03-20T12:37:27.790Z,9.58
2024-03-20T12:39:58.854Z,9.41
2024-03-20T12:42:27.113Z,9.34
2024-03-20T12:44:56.098Z,9.73
2024-03-20T12:47:24.138Z,9.95
2024-03-20T12:49:54.015Z,10.10
2024-03-20T12:52:22.134Z,10.27
2024-03-20T12:54:51.837Z,10.91
2024-03-20T12:57:19.863Z,11.75
2024-03-20T12:59:48.230Z,12.15
2024-03-20T13:02:17.446Z,12.63
2024-03-20T13:04:48.559Z,13.10
2024-03-20T13:07:17.232Z,13.55
2024-03-20T13:09:48.144Z,13.79
2024-03-20T13:12:16.465Z,14.20
2024-03-20T13:14:44.510Z,14.23
2024-03-20T13:17:19.463Z,13.33
2024-03-20T13:19:47.938Z,12.52
2024-03-20T13:22:20.774Z,11.58
2024-03-20T13:24:50.063Z,11.49
2024-03-20T13:27:22.009Z,11.91
2024-03-20T13:29:50.865Z,12.41
2024-03-20T13:32:23.991Z,12.87
2024-03-20T13:34:54.786Z,13.14
2024-03-20T13:37:27.804Z,13.36
2024-03-20T13:40:15.804Z,13.23
2024-03-20T13:43:19.550Z,12.93
2024-03-20T13:45:58.762Z,13.02
2024-03-20T13:48:27.466Z,13.26
2024-03-20T13:50:55.421Z,13.32
2024-03-20T13:53:24.332Z,13.05
2024-03-20T13:55:54.627Z,12.42
2024-03-20T13:58:26.516Z,12.00
2024-03-20T14:00:55.099Z,11.93
2024-03-20T14:03:23.096Z,11.63
2024-03-20T14:05:51.539Z,11.40
2024-03-20T14:08:33.457Z,10.93
2024-03-20T14:11:06.905Z,10.12
2024-03-20T14:13:35.272Z,10.22
2024-03-20T14:16:04.196Z,10.55
2024-03-20T14:18:32.273Z,10.77
2024-03-20T14:21:00.349Z,10.52
2024-03-20T14:23:28.791Z,10.21
2024-03-20T14:25:58.025Z,9.99
2024-03-20T14:28:25.970Z,9.73
2024-03-20T14:30:53.967Z,9.48
2024-03-20T14:33:21.955Z,9.15
2024-03-20T14:35:49.975Z,8.84
2024-03-20T14:38:44.135Z,9.03
2024-03-20T14:41:19.943Z,9.54
2024-03-20T14:43:51.288Z,10.04
2024-03-20T14:46:23.282Z,10.41
2024-03-20T14:48:51.557Z,10.79
2024-03-20T14:51:22.749Z,11.16
2024-03-20T14:53:51.935Z,11.43
2024-03-20T14:56:21.200Z,11.62
2024-03-20T14:58:52.529Z,11.74
2024-03-20T15:01:22.321Z,11.66
2024-03-20T15:03:50.530Z,11.72
2024-03-20T15:06:20.388Z,11.61
2024-03-20T15:08:54.205Z,11.68
2024-03-20T15:11:25.090Z,11.74
2024-03-20T15:13:53.988Z,11.59
2024-03-20T15:16:23.948Z,11.08
2024-03-20T15:18:54.462Z,10.46
2024-03-20T15:21:24.082Z,9.85
2024-03-20T15:23:53.376Z,9.43
2024-03-20T15:26:23.295Z,9.21
2024-03-20T15:28:53.449Z,9.15
2024-03-20T15:31:24.485Z,8.96
2024-03-20T15:33:52.607Z,8.60
2024-03-20T15:36:21.217Z,8.31
2024-03-20T15:38:50.166Z,8.00
2024-03-20T15:41:22.519Z,7.65
2024-03-20T15:43:51.796Z,7.38
2024-03-20T15:46:20.665Z,7.14
2024-03-20T15:48:51.415Z,6.91
2024-03-20T15:51:22.861Z,6.69
2024-03-20T15:53:51.758Z,6.53
2024-03-20T15:56:20.210Z,6.34
2024-03-20T15:58:51.129Z,6.18
2024-03-20T16:01:21.986Z,6.02
2024-03-20T16:03:52.887Z,5.85
2024-03-20T16:06:21.055Z,5.64
2024-03-20T16:08:49.061Z,5.51
2024-03-20T16:11:17.066Z,5.35
2024-03-20T16:13:45.202Z,5.21
2024-03-20T16:16:18.068Z,5.10
2024-03-20T16:18:46.152Z,4.99
2024-03-20T16:21:14.475Z,4.88
2024-03-20T16:23:43.295Z,4.79
2024-03-20T16:26:16.921Z,4.70
2024-03-20T16:28:45.319Z,4.61
2024-03-20T16:31:13.431Z,4.51
2024-03-20T16:33:41.487Z,4.41
2024-03-20T16:36:09.636Z,4.32
2024-03-20T16:38:39.559Z,4.24
2024-03-20T16:41:16.436Z,4.19
2024-03-20T16:43:51.065Z,4.13
2024-03-20T16:46:19.359Z,4.09
2024-03-20T16:48:47.676Z,4.03
2024-03-20T16:51:16.497Z,3.97
2024-03-20T16:53:44.750Z,3.92
2024-03-20T16:56:13.424Z,3.89
2024-03-20T16:58:42.040Z,3.85
2024-03-20T17:01:10.071Z,3.82
2024-03-20T17:03:38.306Z,3.80
2024-03-20T17:06:08.010Z,3.79
2024-03-20T17:08:36.088Z,3.78
2024-03-20T17:11:04.247Z,3.77
2024-03-20T17:13:32.279Z,3.78
2024-03-20T17:16:00.286Z,3.78
2024-03-20T17:18:28.296Z,3.78
2024-03-20T17:20:57.042Z,3.78
2024-03-20T17:23:26.030Z,3.77
2024-03-20T17:25:54.140Z,3.76
2024-03-20T17:28:22.233Z,3.72
2024-03-20T17:30:50.203Z,3.68
2024-03-20T17:33:18.222Z,3.66
2024-03-20T17:35:52.288Z,3.65
2024-03-20T17:38:20.851Z,3.66
2024-03-20T17:40:55.227Z,3.66
2024-03-20T17:43:23.296Z,3.66
2024-03-20T17:45:51.278Z,3.65
2024-03-20T17:48:19.239Z,3.64
2024-03-20T17:50:47.421Z,3.59
2024-03-20T17:53:15.423Z,3.54
2024-03-20T17:55:43.393Z,3.48
2024-03-20T17:58:11.662Z,3.41
2024-03-20T18:00:39.685Z,3.37
2024-03-20T18:03:07.677Z,3.31
2024-03-20T18:05:35.701Z,3.25
2024-03-20T18:08:03.762Z,3.18
2024-03-20T18:10:31.739Z,3.14
2024-03-20T18:12:59.690Z,3.10
2024-03-20T18:15:28.051Z,3.08
2024-03-20T18:17:56.092Z,3.08
2024-03-20T18:20:24.186Z,3.12
2024-03-20T18:22:52.161Z,3.14
2024-03-20T18:25:20.526Z,3.16
2024-03-20T18:27:48.654Z,3.17
2024-03-20T18:30:17.258Z,3.16
2024-03-20T18:32:45.211Z,3.14
2024-03-20T18:35:13.344Z,3.09
2024-03-20T18:37:41.892Z,3.04
2024-03-20T18:40:13.028Z,3.01
2024-03-20T18:42:40.994Z,2.99
2024-03-20T18:45:11.272Z,2.99
2024-03-20T18:47:39.312Z,2.98
2024-03-20T18:50:08.553Z,2.96
2024-03-20T18:52:36.672Z,2.94
2024-03-20T18:55:05.670Z,2.93
2024-03-20T18:57:36.279Z,2.90
2024-03-20T19:00:09.597Z,2.84
2024-03-20T19:02:38.078Z,2.80
2024-03-20T19:05:06.213Z,2.76
2024-03-20T19:07:34.251Z,2.75
2024-03-20T19:10:02.219Z,2.75
2024-03-20T19:12:30.463Z,2.75
2024-03-20T19:14:58.513Z,2.75
2024-03-20T19:17:26.479Z,2.75
2024-03-20T19:19:57.186Z,2.74
2024-03-20T19:22:25.379Z,2.71
2024-03-20T19:24:54.739Z,2.66
2024-03-20T19:27:22.784Z,2.62
2024-03-20T19:29:54.562Z,2.58
2024-03-20T19:32:22.679Z,2.54
2024-03-20T19:34:50.738Z,2.49
2024-03-20T19:37:18.686Z,2.44
2024-03-20T19:39:46.674Z,2.44
2024-03-20T19:42:14.686Z,2.44
2024-03-20T19:44:47.666Z,2.47
2024-03-20T19:47:15.501Z,2.48
2024-03-20T19:49:43.960Z,2.47
2024-03-20T19:52:11.903Z,2.47
2024-03-20T19:54:40.905Z,2.49
2024-03-20T19:57:10.781Z,2.50
2024-03-20T19:59:38.830Z,2.52
2024-03-20T20:02:06.937Z,2.54
2024-03-20T20:04:35.137Z,2.56
2024-03-20T20:07:04.422Z,2.58
2024-03-20T20:09:35.511Z,2.59
2024-03-20T20:12:06.527Z,2.60
2024-03-20T20:14:34.517Z,2.59
2024-03-20T20:17:02.559Z,2.58
2024-03-20T20:19:30.580Z,2.54
2024-03-20T20:21:58.564Z,2.51
2024-03-20T20:24:26.606Z,2.43
2024-03-20T20:26:54.631Z,2.36
2024-03-20T20:29:22.617Z,2.28
2024-03-20T20:31:50.609Z,2.21
2024-03-20T20:34:18.552Z,2.13
2024-03-20T20:36:47.647Z,2.06
2024-03-20T20:39:15.608Z,2.01
2024-03-20T20:41:45.353Z,1.93
2024-03-20T20:44:13.444Z,1.87
2024-03-20T20:46:41.737Z,1.81
2024-03-20T20:49:09.803Z,1.76
2024-03-20T20:51:37.804Z,1.72
2024-03-20T20:54:06.360Z,1.70
2024-03-20T20:56:34.441Z,1.68
2024-03-20T20:59:02.445Z,1.65
2024-03-20T21:01:30.705Z,1.62
2024-03-20T21:04:17.387Z,1.60
2024-03-20T21:07:04.122Z,1.55
2024-03-20T21:09:50.973Z,1.50
2024-03-20T21:12:37.707Z,1.47
2024-03-20T21:15:25.015Z,1.44
2024-03-20T21:18:11.654Z,1.41
2024-03-20T21:20:40.056Z,1.38
2024-03-20T21:23:14.270Z,1.34
2024-03-20T21:25:42.227Z,1.29
2024-03-20T21:28:10.213Z,1.24
2024-03-20T21:30:38.265Z,1.21
2024-03-20T21:33:06.248Z,1.15
2024-03-20T21:35:34.258Z,1.10
2024-03-20T21:38:02.252Z,1.05
2024-03-20T21:40:32.674Z,1.01
2024-03-20T21:43:00.712Z,1.00
2024-03-20T21:45:28.736Z,0.99
2024-03-20T21:47:56.721Z,0.98
2024-03-20T21:50:24.718Z,0.96
2024-03-20T21:52:52.857Z,0.92
2024-03-20T21:55:21.837Z,0.90
2024-03-20T21:57:50.828Z,0.87
2024-03-20T22:00:19.236Z,0.83
2024-03-20T22:02:47.286Z,0.83
2024-03-20T22:05:15.242Z,0.83
2024-03-20T22:07:45.712Z,0.83
2024-03-20T22:10:24.676Z,0.81
2024-03-20T22:12:53.758Z,0.76
2024-03-20T22:15:21.856Z,0.71
2024-03-20T22:17:49.817Z,0.66
2024-03-20T22:20:18.827Z,0.60
2024-03-20T22:22:48.843Z,0.54
2024-03-20T22:25:16.957Z,0.49
2024-03-20T22:27:45.012Z,0.47
2024-03-20T22:30:17.733Z,0.46
2024-03-20T22:32:47.018Z,0.44
2024-03-20T22:35:15.084Z,0.42
2024-03-20T22:37:43.185Z,0.40
2024-03-20T22:40:13.251Z,0.38
2024-03-20T22:42:41.222Z,0.37
2024-03-20T22:45:20.510Z,0.37
2024-03-20T22:47:53.400Z,0.35
2024-03-20T22:50:21.262Z,0.34
2024-03-20T22:52:49.546Z,0.32
2024-03-20T22:55:17.543Z,0.32
2024-03-20T22:57:53.393Z,0.31
2024-03-20T23:00:46.937Z,0.32
2024-03-20T23:03:19.732Z,0.33
2024-03-20T23:05:56.093Z,0.32
2024-03-20T23:08:24.043Z,0.31
2024-03-20T23:10:52.252Z,0.29
2024-03-20T23:13:20.213Z,0.28
2024-03-20T23:15:48.245Z,0.27
2024-03-20T23:18:16.210Z,0.26
2024-03-20T23:20:45.047Z,0.26
2024-03-20T23:23:13.064Z,0.27
2024-03-20T23:25:45.060Z,0.29
2024-03-20T23:28:19.277Z,0.31
2024-03-20T23:30:47.240Z,0.31
2024-03-20T23:33:15.478Z,0.31
2024-03-20T23:35:43.419Z,0.32
2024-03-20T23:38:15.090Z,0.33
2024-03-20T23:40:43.747Z,0.37
2024-03-20T23:43:11.790Z,0.42
2024-03-20T23:45:39.723Z,0.47
2024-03-20T23:48:08.193Z,0.49
2024-03-20T23:50:36.245Z,0.51
2024-03-20T23:53:04.431Z,0.50
2024-03-20T23:55:32.691Z,0.48
2024-03-20T23:58:00.684Z,0.43
